createdAt,value
2023-04-26T00:00:36.571Z,5.30
2023-04-26T00:03:04.642Z,5.30
2023-04-26T00:05:31.783Z,5.30
2023-04-26T00:07:59.547Z,5.20
2023-04-26T00:10:26.903Z,5.30
2023-04-26T00:12:53.887Z,5.20
2023-04-26T00:15:20.919Z,5.20
2023-04-26T00:17:48.074Z,5.20
2023-04-26T00:20:15.621Z,5.30
2023-04-26T00:22:42.939Z,5.20
2023-04-26T00:25:10.226Z,5.20
2023-04-26T00:27:37.188Z,5.30
2023-04-26T00:30:04.618Z,5.30
2023-04-26T00:32:32.083Z,5.30
2023-04-26T00:34:59.010Z,5.30
2023-04-26T00:37:25.858Z,5.30
2023-04-26T00:39:52.893Z,5.30
2023-04-26T00:42:19.698Z,5.40
2023-04-26T00:44:46.661Z,5.40
2023-04-26T00:47:13.909Z,5.30
2023-04-26T00:49:42.687Z,5.30
2023-04-26T00:52:10.575Z,5.40
2023-04-26T00:54:37.516Z,5.30
2023-04-26T00:57:04.685Z,5.30
2023-04-26T00:59:31.621Z,5.30
2023-04-26T01:02:04.656Z,2.90
2023-04-26T01:04:31.978Z,5.50
2023-04-26T01:07:00.382Z,5.40
2023-04-26T01:09:28.155Z,5.40
2023-04-26T01:11:58.192Z,5.40
2023-04-26T01:14:25.369Z,5.40
2023-04-26T01:16:52.456Z,5.40
2023-04-26T01:19:19.696Z,5.40
2023-04-26T01:21:46.622Z,5.40
2023-04-26T01:24:51.522Z,5.40
2023-04-26T01:27:18.587Z,5.50
2023-04-26T01:29:46.461Z,5.50
2023-04-26T01:32:13.346Z,5.40
2023-04-26T01:34:40.344Z,5.40
2023-04-26T01:37:07.955Z,5.40
2023-04-26T01:39:36.716Z,5.40
2023-04-26T01:42:04.913Z,5.40
2023-04-26T01:44:32.100Z,5.40
2023-04-26T01:46:59.057Z,5.40
2023-04-26T01:49:26.013Z,5.30
2023-04-26T01:51:53.523Z,5.30
2023-04-26T01:54:20.397Z,5.30
2023-04-26T01:56:47.295Z,5.30
2023-04-26T01:59:14.177Z,5.30
2023-04-26T02:01:44.132Z,5.40
2023-04-26T02:04:11.338Z,5.40
2023-04-26T02:06:38.285Z,5.40
2023-04-26T02:09:05.944Z,5.40
2023-04-26T02:11:32.848Z,5.40
2023-04-26T02:13:59.780Z,5.40
2023-04-26T02:16:27.230Z,5.30
2023-04-26T02:18:55.182Z,5.30
2023-04-26T02:21:23.471Z,4.20
2023-04-26T02:23:50.426Z,5.30
2023-04-26T02:26:17.233Z,5.40
2023-04-26T02:28:44.324Z,5.30
2023-04-26T02:31:11.449Z,5.30
2023-04-26T02:33:38.365Z,5.20
2023-04-26T02:36:06.330Z,5.30
2023-04-26T02:38:35.292Z,5.30
2023-04-26T02:41:03.504Z,5.30
2023-04-26T02:43:30.772Z,5.30
2023-04-26T02:45:59.111Z,5.30
2023-04-26T02:48:34.697Z,5.30
2023-04-26T02:51:07.314Z,5.30
2023-04-26T02:53:34.260Z,5.20
2023-04-26T02:56:01.533Z,5.30
2023-04-26T02:58:28.420Z,5.30
2023-04-26T03:01:01.031Z,5.30
2023-04-26T03:03:28.901Z,5.50
2023-04-26T03:05:55.896Z,5.40
2023-04-26T03:08:22.940Z,5.30
2023-04-26T03:10:49.813Z,5.30
2023-04-26T03:13:16.975Z,5.30
2023-04-26T03:15:47.053Z,5.30
2023-04-26T03:18:13.939Z,5.30
2023-04-26T03:20:42.073Z,5.20
2023-04-26T03:23:09.037Z,5.20
2023-04-26T03:25:36.643Z,5.30
2023-04-26T03:28:04.057Z,5.20
2023-04-26T03:30:31.115Z,5.20
2023-04-26T03:32:58.031Z,5.30
2023-04-26T03:35:24.879Z,5.30
2023-04-26T03:37:53.431Z,5.20
2023-04-26T03:40:20.506Z,5.20
2023-04-26T03:42:47.700Z,5.20
2023-04-26T03:45:14.583Z,5.20
2023-04-26T03:47:41.536Z,5.20
2023-04-26T03:50:08.912Z,5.20
2023-04-26T03:52:36.018Z,5.20
2023-04-26T03:55:03.533Z,5.20
2023-04-26T03:57:30.421Z,5.20
2023-04-26T03:59:58.126Z,5.20
2023-04-26T04:02:25.130Z,5.20
2023-04-26T04:04:52.294Z,5.20
2023-04-26T04:07:19.448Z,5.20
2023-04-26T04:09:46.503Z,5.20
2023-04-26T04:12:13.302Z,5.20
2023-04-26T04:14:40.195Z,5.20
2023-04-26T04:17:08.527Z,5.20
2023-04-26T04:19:35.935Z,5.30
2023-04-26T04:22:02.855Z,5.20
2023-04-26T04:24:29.925Z,5.10
2023-04-26T04:26:56.809Z,5.20
2023-04-26T04:29:23.850Z,5.20
2023-04-26T04:31:50.983Z,5.10
2023-04-26T04:34:17.898Z,5.20
2023-04-26T04:36:44.755Z,5.10
2023-04-26T04:39:16.188Z,5.20
2023-04-26T04:41:49.861Z,5.20
2023-04-26T04:44:17.700Z,5.20
2023-04-26T04:46:45.146Z,5.20
2023-04-26T04:49:12.976Z,5.20
2023-04-26T04:51:39.845Z,5.20
2023-04-26T04:54:14.099Z,5.20
2023-04-26T04:56:41.259Z,5.30
2023-04-26T04:59:08.658Z,5.30
2023-04-26T05:01:37.331Z,5.30
2023-04-26T05:04:05.428Z,5.20
2023-04-26T05:06:32.438Z,5.30
2023-04-26T05:08:59.834Z,5.30
2023-04-26T05:11:26.745Z,5.30
2023-04-26T05:13:54.158Z,5.30
2023-04-26T05:16:21.349Z,5.30
2023-04-26T05:18:48.256Z,5.40
2023-04-26T05:21:15.120Z,5.40
2023-04-26T05:23:42.131Z,5.40
2023-04-26T05:26:13.619Z,5.30
2023-04-26T05:28:40.886Z,5.30
2023-04-26T05:31:10.705Z,5.30
2023-04-26T05:33:38.599Z,5.40
2023-04-26T05:36:07.199Z,5.40
2023-04-26T05:38:34.084Z,5.40
2023-04-26T05:41:01.006Z,5.40
2023-04-26T05:43:30.248Z,5.50
2023-04-26T05:45:57.722Z,5.60
2023-04-26T05:48:25.551Z,5.60
2023-04-26T05:50:52.886Z,5.60
2023-04-26T05:53:20.510Z,5.70
2023-04-26T05:55:47.729Z,5.70
2023-04-26T05:58:14.802Z,5.80
2023-04-26T06:00:41.750Z,5.80
2023-04-26T06:03:08.847Z,5.90
2023-04-26T06:05:41.534Z,5.80
2023-04-26T06:08:08.797Z,5.70
2023-04-26T06:10:38.724Z,5.70
2023-04-26T06:13:05.932Z,5.80
2023-04-26T06:15:34.155Z,5.80
2023-04-26T06:18:01.055Z,5.70
2023-04-26T06:20:28.378Z,5.70
2023-04-26T06:22:55.239Z,5.70
2023-04-26T06:25:22.276Z,5.60
2023-04-26T06:27:49.307Z,5.70
2023-04-26T06:30:16.281Z,5.70
2023-04-26T06:32:43.255Z,5.70
2023-04-26T06:35:10.301Z,5.80
2023-04-26T06:37:39.093Z,5.80
2023-04-26T06:40:06.647Z,5.90
2023-04-26T06:42:33.640Z,5.90
2023-04-26T06:45:00.725Z,6.00
2023-04-26T06:47:27.600Z,6.20
2023-04-26T06:49:54.683Z,6.20
2023-04-26T06:52:21.807Z,6.20
2023-04-26T06:54:56.444Z,6.30
2023-04-26T06:57:24.179Z,6.30
2023-04-26T06:59:51.504Z,6.30
2023-04-26T07:02:18.564Z,6.30
2023-04-26T07:04:45.948Z,6.20
2023-04-26T07:07:14.554Z,6.20
2023-04-26T07:09:41.815Z,6.20
2023-04-26T07:12:11.147Z,6.30
2023-04-26T07:14:40.846Z,6.30
2023-04-26T07:17:08.384Z,6.30
2023-04-26T07:19:35.668Z,6.30
2023-04-26T07:22:02.732Z,6.20
2023-04-26T07:24:29.696Z,6.20
2023-04-26T07:26:57.264Z,6.30
2023-04-26T07:29:24.229Z,6.30
2023-04-26T07:31:51.458Z,6.40
2023-04-26T07:34:18.598Z,6.50
2023-04-26T07:36:45.729Z,6.60
2023-04-26T07:39:12.825Z,6.60
2023-04-26T07:41:41.060Z,6.60
2023-04-26T07:44:11.290Z,6.60
2023-04-26T07:46:38.295Z,6.60
2023-04-26T07:49:05.410Z,6.50
2023-04-26T07:51:32.533Z,6.60
2023-04-26T07:53:59.529Z,6.70
2023-04-26T07:56:26.534Z,6.60
2023-04-26T07:58:53.604Z,6.70
2023-04-26T08:01:20.606Z,6.60
2023-04-26T08:03:49.207Z,6.70
2023-04-26T08:06:16.914Z,6.70
2023-04-26T08:08:50.670Z,6.80
2023-04-26T08:11:18.363Z,6.70
2023-04-26T08:13:45.580Z,6.70
2023-04-26T08:16:12.979Z,6.70
2023-04-26T08:18:40.326Z,6.60
2023-04-26T08:21:07.275Z,6.60
2023-04-26T08:23:38.382Z,6.60
2023-04-26T08:26:06.689Z,6.50
2023-04-26T08:28:33.707Z,6.40
2023-04-26T08:31:00.847Z,6.30
2023-04-26T08:33:27.790Z,6.20
2023-04-26T08:35:54.804Z,6.20
2023-04-26T08:38:22.934Z,6.10
2023-04-26T08:40:51.682Z,5.90
2023-04-26T08:43:18.698Z,5.70
2023-04-26T08:45:49.354Z,5.60
2023-04-26T08:48:22.823Z,5.50
2023-04-26T08:50:58.985Z,4.80
2023-04-26T08:53:28.818Z,6.30
2023-04-26T08:55:57.134Z,5.50
2023-04-26T08:58:27.145Z,5.40
2023-04-26T09:00:55.201Z,4.80
2023-04-26T09:03:30.552Z,5.40
2023-04-26T09:06:03.867Z,5.50
2023-04-26T09:08:31.807Z,5.30
2023-04-26T09:11:05.005Z,5.90
2023-04-26T09:13:40.402Z,3.10
2023-04-26T09:16:07.559Z,6.70
2023-04-26T09:18:56.036Z,5.70
2023-04-26T09:21:26.636Z,5.80
2023-04-26T09:24:06.790Z,4.40
2023-04-26T09:26:34.198Z,5.60
2023-04-26T09:29:21.502Z,3.00
2023-04-26T09:31:53.033Z,6.50
2023-04-26T09:34:22.141Z,6.30
2023-04-26T09:36:51.957Z,6.50
2023-04-26T09:39:42.469Z,6.70
2023-04-26T09:42:11.372Z,6.50
2023-04-26T09:44:38.676Z,6.60
2023-04-26T09:47:11.938Z,6.90
2023-04-26T09:49:50.469Z,6.10
2023-04-26T09:52:27.306Z,6.80
2023-04-26T09:54:55.312Z,6.40
2023-04-26T09:57:25.245Z,3.30
2023-04-26T09:59:56.556Z,6.30
2023-04-26T10:02:25.557Z,6.30
2023-04-26T10:04:55.586Z,6.30
2023-04-26T10:07:25.395Z,6.20
2023-04-26T10:09:53.570Z,6.30
2023-04-26T10:12:20.913Z,6.20
2023-04-26T10:14:49.582Z,6.20
2023-04-26T10:17:18.853Z,6.10
2023-04-26T10:19:48.691Z,6.10
2023-04-26T10:22:21.708Z,6.10
2023-04-26T10:24:49.984Z,6.20
2023-04-26T10:27:20.073Z,6.20
2023-04-26T10:29:59.802Z,6.00
2023-04-26T10:32:29.142Z,5.70
2023-04-26T10:35:18.071Z,6.40
2023-04-26T10:38:06.557Z,5.80
2023-04-26T10:40:55.180Z,7.10
2023-04-26T10:43:28.819Z,6.80
2023-04-26T10:46:00.717Z,6.40
2023-04-26T10:48:36.240Z,4.60
2023-04-26T10:54:05.015Z,6.40
2023-04-26T10:56:35.099Z,6.30
2023-04-26T10:59:33.294Z,6.30
2023-04-26T11:02:05.744Z,6.30
2023-04-26T11:04:58.306Z,6.20
2023-04-26T11:07:38.878Z,6.60
2023-04-26T11:10:39.409Z,6.80
2023-04-26T11:13:34.689Z,7.10
2023-04-26T11:16:08.534Z,7.10
2023-04-26T11:18:45.119Z,6.40
2023-04-26T11:21:21.847Z,6.70
2023-04-26T11:24:12.360Z,6.20
2023-04-26T11:26:39.584Z,6.60
2023-04-26T11:29:13.713Z,6.30
2023-04-26T11:31:51.041Z,6.30
2023-04-26T11:34:29.750Z,6.70
2023-04-26T11:37:03.339Z,6.40
2023-04-26T11:39:37.763Z,6.50
2023-04-26T11:42:19.537Z,6.80
2023-04-26T11:44:47.683Z,4.00
2023-04-26T11:47:15.159Z,6.50
2023-04-26T11:49:42.383Z,6.70
2023-04-26T11:52:09.869Z,6.90
2023-04-26T11:54:38.064Z,7.20
2023-04-26T11:57:17.159Z,7.40
2023-04-26T11:59:45.965Z,7.40
2023-04-26T12:02:13.292Z,7.20
2023-04-26T12:04:41.402Z,7.20
2023-04-26T12:07:09.785Z,7.00
2023-04-26T12:09:42.245Z,7.00
2023-04-26T12:12:09.325Z,7.20
2023-04-26T12:14:38.889Z,7.20
2023-04-26T12:17:07.690Z,7.30
2023-04-26T12:19:39.651Z,7.50
2023-04-26T12:22:07.639Z,7.80
2023-04-26T12:24:37.142Z,7.80
2023-04-26T12:27:07.145Z,7.70
2023-04-26T12:29:35.089Z,7.70
2023-04-26T12:32:02.783Z,7.60
2023-04-26T12:34:30.067Z,7.40
2023-04-26T12:36:57.810Z,7.40
2023-04-26T12:39:28.751Z,7.30
2023-04-26T12:41:56.203Z,7.60
2023-04-26T12:44:23.123Z,7.80
2023-04-26T12:46:50.428Z,7.90
2023-04-26T12:49:17.461Z,7.70
2023-04-26T12:51:44.370Z,7.60
2023-04-26T12:54:11.339Z,7.50
2023-04-26T12:56:43.664Z,7.70
2023-04-26T12:59:10.926Z,7.80
2023-04-26T13:01:38.027Z,7.90
2023-04-26T13:04:06.300Z,8.10
2023-04-26T13:06:34.200Z,8.40
2023-04-26T13:09:01.838Z,8.50
2023-04-26T13:11:30.946Z,8.60
2023-04-26T13:13:57.985Z,8.70
2023-04-26T13:16:27.919Z,7.40
2023-04-26T13:18:56.340Z,8.20
2023-04-26T13:21:23.613Z,9.50
2023-04-26T13:23:50.636Z,9.10
2023-04-26T13:26:18.455Z,9.20
2023-04-26T13:28:45.642Z,9.10
2023-04-26T13:31:12.677Z,9.10
2023-04-26T13:33:39.813Z,9.20
2023-04-26T13:36:07.362Z,9.20
2023-04-26T13:38:35.791Z,9.10
2023-04-26T13:41:03.094Z,9.00
2023-04-26T13:43:30.118Z,9.20
2023-04-26T13:46:01.190Z,9.30
2023-04-26T13:48:28.446Z,9.30
2023-04-26T13:50:59.035Z,9.40
2023-04-26T13:53:28.755Z,8.20
2023-04-26T13:55:55.816Z,9.30
2023-04-26T13:58:22.987Z,9.00
2023-04-26T14:00:50.045Z,8.40
2023-04-26T14:03:17.309Z,9.30
2023-04-26T14:05:44.441Z,8.30
2023-04-26T14:08:12.805Z,9.40
2023-04-26T14:10:39.892Z,9.40
2023-04-26T14:13:07.006Z,9.10
2023-04-26T14:15:34.014Z,9.00
2023-04-26T14:18:01.217Z,8.80
2023-04-26T14:20:28.695Z,8.80
2023-04-26T14:22:56.231Z,9.00
2023-04-26T14:25:23.256Z,9.10
2023-04-26T14:27:51.828Z,9.10
2023-04-26T14:30:20.330Z,9.30
2023-04-26T14:32:47.591Z,9.40
2023-04-26T14:35:14.583Z,9.40
2023-04-26T14:37:41.723Z,9.40
2023-04-26T14:40:09.147Z,9.40
2023-04-26T14:42:36.375Z,9.50
2023-04-26T14:45:03.492Z,9.50
2023-04-26T14:47:31.134Z,9.40
2023-04-26T14:49:58.269Z,9.50
2023-04-26T14:52:28.007Z,9.40
2023-04-26T14:54:55.192Z,9.30
2023-04-26T14:57:22.469Z,9.10
2023-04-26T14:59:49.420Z,9.10
2023-04-26T15:02:16.650Z,9.00
2023-04-26T15:04:43.893Z,8.80
2023-04-26T15:07:24.522Z,8.70
2023-04-26T15:09:58.357Z,8.50
2023-04-26T15:12:25.523Z,8.30
2023-04-26T15:14:52.576Z,8.10
2023-04-26T15:17:19.836Z,7.90
2023-04-26T15:22:14.467Z,7.90
2023-04-26T15:24:41.591Z,7.80
2023-04-26T15:27:08.733Z,7.90
2023-04-26T15:29:36.100Z,8.00
2023-04-26T15:32:04.108Z,7.90
2023-04-26T15:34:40.881Z,7.90
2023-04-26T15:37:07.958Z,7.80
2023-04-26T15:39:37.571Z,7.80
2023-04-26T15:42:05.814Z,7.80
2023-04-26T15:44:35.713Z,7.80
2023-04-26T15:47:03.934Z,7.90
2023-04-26T15:49:31.095Z,8.10
2023-04-26T15:51:58.095Z,8.10
2023-04-26T15:54:26.425Z,8.10
2023-04-26T15:56:53.667Z,8.20
2023-04-26T15:59:20.802Z,8.30
2023-04-26T16:01:47.893Z,8.40
2023-04-26T16:04:15.012Z,8.50
2023-04-26T16:06:42.198Z,8.50
2023-04-26T16:09:24.689Z,8.40
2023-04-26T16:11:52.683Z,8.30
2023-04-26T16:14:19.659Z,8.30
2023-04-26T16:16:48.289Z,8.40
2023-04-26T16:19:16.415Z,8.40
2023-04-26T16:21:43.737Z,8.40
2023-04-26T16:24:12.353Z,8.30
2023-04-26T16:26:39.572Z,8.30
2023-04-26T16:29:06.596Z,8.30
2023-04-26T16:31:34.026Z,8.30
2023-04-26T16:36:28.657Z,8.30
2023-04-26T16:38:58.008Z,8.50
2023-04-26T16:41:26.732Z,8.30
2023-04-26T16:43:55.154Z,8.20
2023-04-26T16:46:22.358Z,8.20
2023-04-26T16:48:49.396Z,8.20
2023-04-26T16:51:16.395Z,8.10
2023-04-26T16:53:45.700Z,7.80
2023-04-26T16:56:12.755Z,7.70
2023-04-26T16:58:39.618Z,7.60
2023-04-26T17:01:09.773Z,7.60
2023-04-26T17:03:36.987Z,7.70
2023-04-26T17:06:06.627Z,7.50
2023-04-26T17:08:37.192Z,7.50
2023-04-26T17:11:04.270Z,7.60
2023-04-26T17:13:34.684Z,7.70
2023-04-26T17:16:01.763Z,7.50
2023-04-26T17:18:32.117Z,7.50
2023-04-26T17:21:02.310Z,7.60
2023-04-26T17:23:33.028Z,7.50
2023-04-26T17:26:04.514Z,7.90
2023-04-26T17:28:33.181Z,7.70
2023-04-26T17:31:03.885Z,7.50
2023-04-26T17:33:31.630Z,4.70
2023-04-26T17:35:58.640Z,9.40
2023-04-26T17:38:25.674Z,7.50
2023-04-26T17:40:54.555Z,7.40
2023-04-26T17:43:21.771Z,7.30
2023-04-26T17:45:48.954Z,7.30
2023-04-26T17:48:17.135Z,7.30
2023-04-26T17:50:44.579Z,7.20
2023-04-26T17:53:13.865Z,7.20
2023-04-26T17:55:47.005Z,7.00
2023-04-26T17:58:19.645Z,7.50
2023-04-26T18:00:47.070Z,7.00
2023-04-26T18:03:14.365Z,7.20
2023-04-26T18:05:41.915Z,6.90
2023-04-26T18:08:08.907Z,6.80
2023-04-26T18:10:35.828Z,6.80
2023-04-26T18:13:02.997Z,6.70
2023-04-26T18:15:33.222Z,6.60
2023-04-26T18:18:03.153Z,6.50
2023-04-26T18:20:33.009Z,6.50
2023-04-26T18:26:20.254Z,8.40
2023-04-26T18:28:47.332Z,6.50
2023-04-26T18:31:17.812Z,6.80
2023-04-26T18:36:41.321Z,6.30
2023-04-26T18:39:12.885Z,6.30
2023-04-26T18:41:39.936Z,6.20
2023-04-26T18:44:27.804Z,6.20
2023-04-26T18:46:57.381Z,6.30
2023-04-26T18:49:26.365Z,6.20
2023-04-26T18:51:53.549Z,6.10
2023-04-26T18:54:23.608Z,6.10
2023-04-26T18:56:54.230Z,6.40
2023-04-26T18:59:21.305Z,6.00
2023-04-26T19:01:51.653Z,5.90
2023-04-26T19:04:18.902Z,8.10
2023-04-26T19:06:46.033Z,6.00
2023-04-26T19:09:15.849Z,5.90
2023-04-26T19:11:42.721Z,6.00
2023-04-26T19:14:09.775Z,5.80
2023-04-26T19:16:36.877Z,5.90
2023-04-26T19:19:04.790Z,5.80
2023-04-26T19:21:35.357Z,5.70
2023-04-26T19:24:02.531Z,3.50
2023-04-26T19:26:34.098Z,5.60
2023-04-26T19:29:01.680Z,5.70
2023-04-26T19:31:29.833Z,5.60
2023-04-26T19:34:00.293Z,5.60
2023-04-26T19:36:27.552Z,5.60
2023-04-26T19:39:00.011Z,5.60
2023-04-26T19:44:25.436Z,5.50
2023-04-26T19:46:52.458Z,5.60
2023-04-26T19:49:22.227Z,4.10
2023-04-26T19:51:55.704Z,4.10
2023-04-26T19:54:22.912Z,5.40
2023-04-26T19:56:57.558Z,5.50
2023-04-26T19:59:28.495Z,5.20
2023-04-26T20:01:58.416Z,2.30
2023-04-26T20:04:38.487Z,5.70
2023-04-26T20:07:06.286Z,5.70
2023-04-26T20:09:36.011Z,5.30
2023-04-26T20:12:03.518Z,3.50
2023-04-26T20:14:31.068Z,5.10
2023-04-26T20:17:02.363Z,4.20
2023-04-26T20:19:35.869Z,5.20
2023-04-26T20:22:02.823Z,5.30
2023-04-26T20:24:38.960Z,4.70
2023-04-26T20:27:12.218Z,5.00
2023-04-26T20:29:39.099Z,5.00
2023-04-26T20:32:06.268Z,5.00
2023-04-26T20:34:33.377Z,5.00
2023-04-26T20:37:00.540Z,4.90
2023-04-26T20:39:28.459Z,4.90
2023-04-26T20:41:55.450Z,4.90
2023-04-26T20:44:22.388Z,4.90
2023-04-26T20:46:49.306Z,4.80
2023-04-26T20:49:16.292Z,4.80
2023-04-26T20:51:43.407Z,4.80
2023-04-26T20:54:10.462Z,4.80
2023-04-26T20:56:37.400Z,4.70
2023-04-26T20:59:04.492Z,4.80
2023-04-26T21:01:31.904Z,4.70
2023-04-26T21:03:59.088Z,4.70
2023-04-26T21:06:27.225Z,4.70
2023-04-26T21:08:54.174Z,4.70
2023-04-26T21:11:21.460Z,4.70
2023-04-26T21:13:48.617Z,4.70
2023-04-26T21:16:15.986Z,4.70
2023-04-26T21:18:42.980Z,4.60
2023-04-26T21:21:12.871Z,4.60
2023-04-26T21:23:39.883Z,7.50
2023-04-26T21:26:07.128Z,4.70
2023-04-26T21:28:34.101Z,4.60
2023-04-26T21:31:07.762Z,4.60
2023-04-26T21:33:35.023Z,4.80
2023-04-26T21:36:02.099Z,4.50
2023-04-26T21:38:29.071Z,4.50
2023-04-26T21:40:59.120Z,4.50
2023-04-26T21:43:26.129Z,4.50
2023-04-26T21:45:58.237Z,4.50
2023-04-26T21:48:26.505Z,4.40
2023-04-26T21:50:55.864Z,4.60
2023-04-26T21:53:22.797Z,4.40
2023-04-26T21:55:54.218Z,4.60
2023-04-26T21:58:22.050Z,4.40
2023-04-26T22:00:49.704Z,4.30
2023-04-26T22:03:17.364Z,4.30
2023-04-26T22:05:44.576Z,4.30
2023-04-26T22:08:11.487Z,4.20
2023-04-26T22:10:38.590Z,4.20
2023-04-26T22:13:05.598Z,4.10
2023-04-26T22:15:32.580Z,4.10
2023-04-26T22:18:01.558Z,4.10
2023-04-26T22:20:30.046Z,4.20
2023-04-26T22:22:57.051Z,4.10
2023-04-26T22:25:28.273Z,4.10
2023-04-26T22:27:55.260Z,6.80
2023-04-26T22:30:25.419Z,4.10
2023-04-26T22:32:58.087Z,4.80
2023-04-26T22:35:25.882Z,4.70
2023-04-26T22:37:53.245Z,4.10
2023-04-26T22:40:20.586Z,4.20
2023-04-26T22:42:47.802Z,4.10
2023-04-26T22:45:17.150Z,4.10
2023-04-26T22:47:47.075Z,4.10
2023-04-26T22:50:15.968Z,4.10
2023-04-26T22:52:42.873Z,4.00
2023-04-26T22:55:09.964Z,4.00
2023-04-26T22:57:37.656Z,4.00
2023-04-26T23:00:06.530Z,4.00
2023-04-26T23:02:33.447Z,4.00
2023-04-26T23:05:00.547Z,3.90
2023-04-26T23:07:27.478Z,3.90
2023-04-26T23:09:54.489Z,3.90
2023-04-26T23:12:21.393Z,3.90
2023-04-26T23:14:48.860Z,3.90
2023-04-26T23:17:16.416Z,3.90
2023-04-26T23:19:43.347Z,3.80
2023-04-26T23:22:10.994Z,3.70
2023-04-26T23:24:37.899Z,3.80
2023-04-26T23:27:05.097Z,3.80
2023-04-26T23:29:31.942Z,3.80
2023-04-26T23:31:58.964Z,3.80
2023-04-26T23:34:25.896Z,3.80
2023-04-26T23:36:52.913Z,3.70
2023-04-26T23:39:19.922Z,3.70
2023-04-26T23:41:46.878Z,3.80
2023-04-26T23:44:13.886Z,3.80
2023-04-26T23:46:40.981Z,3.80
2023-04-26T23:49:07.866Z,3.80
2023-04-26T23:51:34.937Z,3.80
2023-04-26T23:54:01.945Z,3.80
2023-04-26T23:56:28.899Z,3.80
2023-04-26T23:58:56.257Z,3.70
